sensor_id;sensor_type;location;lat;lon;timestamp;P1;durP1;ratioP1;P2;durP2;ratioP2
76310;SDS011;65120;59.304;18.294;2023-06-22T00:00:46;6.65;;;4.55;;
76310;SDS011;65120;59.304;18.294;2023-06-22T00:03:14;7.90;;;4.72;;
76310;SDS011;65120;59.304;18.294;2023-06-22T00:05:41;5.63;;;4.40;;
76310;SDS011;65120;59.304;18.294;2023-06-22T00:08:08;4.95;;;4.38;;
76310;SDS011;65120;59.304;18.294;2023-06-22T00:10:35;8.23;;;5.13;;
76310;SDS011;65120;59.304;18.294;2023-06-22T00:13:02;6.28;;;4.90;;
76310;SDS011;65120;59.304;18.294;2023-06-22T00:15:28;5.57;;;5.05;;
76310;SDS011;65120;59.304;18.294;2023-06-22T00:17:57;4.57;;;4.03;;
76310;SDS011;65120;59.304;18.294;2023-06-22T00:20:24;4.97;;;4.40;;
76310;SDS011;65120;59.304;18.294;2023-06-22T00:22:53;5.20;;;3.90;;
76310;SDS011;65120;59.304;18.294;2023-06-22T00:25:20;9.45;;;4.72;;
76310;SDS011;65120;59.304;18.294;2023-06-22T00:27:47;7.53;;;4.60;;
76310;SDS011;65120;59.304;18.294;2023-06-22T00:30:14;5.05;;;4.47;;
76310;SDS011;65120;59.304;18.294;2023-06-22T00:32:42;5.43;;;4.43;;
76310;SDS011;65120;59.304;18.294;2023-06-22T00:35:13;5.10;;;4.65;;
76310;SDS011;65120;59.304;18.294;2023-06-22T00:37:40;6.10;;;4.88;;
76310;SDS011;65120;59.304;18.294;2023-06-22T00:40:08;4.75;;;4.35;;
76310;SDS011;65120;59.304;18.294;2023-06-22T00:42:37;4.63;;;4.15;;
76310;SDS011;65120;59.304;18.294;2023-06-22T00:45:04;5.05;;;4.55;;
76310;SDS011;65120;59.304;18.294;2023-06-22T00:47:32;6.78;;;4.93;;
76310;SDS011;65120;59.304;18.294;2023-06-22T00:50:01;13.80;;;5.43;;
76310;SDS011;65120;59.304;18.294;2023-06-22T00:52:30;5.55;;;4.88;;
76310;SDS011;65120;59.304;18.294;2023-06-22T00:55:00;5.05;;;4.55;;
76310;SDS011;65120;59.304;18.294;2023-06-22T00:57:28;6.13;;;5.07;;
76310;SDS011;65120;59.304;18.294;2023-06-22T00:59:55;6.57;;;4.65;;
76310;SDS011;65120;59.304;18.294;2023-06-22T01:02:22;6.20;;;5.25;;
76310;SDS011;65120;59.304;18.294;2023-06-22T01:04:49;7.38;;;5.43;;
76310;SDS011;65120;59.304;18.294;2023-06-22T01:07:17;5.78;;;5.18;;
76310;SDS011;65120;59.304;18.294;2023-06-22T01:09:51;5.43;;;5.03;;
76310;SDS011;65120;59.304;18.294;2023-06-22T01:12:23;5.45;;;5.03;;
76310;SDS011;65120;59.304;18.294;2023-06-22T01:14:55;7.22;;;5.13;;
76310;SDS011;65120;59.304;18.294;2023-06-22T01:17:27;5.95;;;5.47;;
76310;SDS011;65120;59.304;18.294;2023-06-22T01:19:55;5.50;;;5.00;;
76310;SDS011;65120;59.304;18.294;2023-06-22T01:22:26;5.45;;;4.95;;
76310;SDS011;65120;59.304;18.294;2023-06-22T01:25:00;5.80;;;5.10;;
76310;SDS011;65120;59.304;18.294;2023-06-22T01:27:39;7.30;;;4.90;;
76310;SDS011;65120;59.304;18.294;2023-06-22T01:30:13;7.93;;;5.85;;
76310;SDS011;65120;59.304;18.294;2023-06-22T01:32:43;8.35;;;5.28;;
76310;SDS011;65120;59.304;18.294;2023-06-22T01:35:10;6.20;;;5.60;;
76310;SDS011;65120;59.304;18.294;2023-06-22T01:37:38;6.88;;;5.85;;
76310;SDS011;65120;59.304;18.294;2023-06-22T01:40:06;5.90;;;5.40;;
76310;SDS011;65120;59.304;18.294;2023-06-22T01:42:35;6.03;;;5.47;;
76310;SDS011;65120;59.304;18.294;2023-06-22T01:45:03;7.28;;;6.13;;
76310;SDS011;65120;59.304;18.294;2023-06-22T01:47:32;6.00;;;5.50;;
76310;SDS011;65120;59.304;18.294;2023-06-22T01:50:00;7.85;;;5.10;;
76310;SDS011;65120;59.304;18.294;2023-06-22T01:52:27;7.30;;;6.47;;
76310;SDS011;65120;59.304;18.294;2023-06-22T01:54:54;7.57;;;6.55;;
76310;SDS011;65120;59.304;18.294;2023-06-22T01:57:23;6.97;;;5.97;;
76310;SDS011;65120;59.304;18.294;2023-06-22T01:59:51;7.65;;;5.88;;
76310;SDS011;65120;59.304;18.294;2023-06-22T02:02:24;8.73;;;6.53;;
76310;SDS011;65120;59.304;18.294;2023-06-22T02:04:57;7.80;;;5.60;;
76310;SDS011;65120;59.304;18.294;2023-06-22T02:07:29;6.10;;;5.43;;
76310;SDS011;65120;59.304;18.294;2023-06-22T02:10:00;7.35;;;6.45;;
76310;SDS011;65120;59.304;18.294;2023-06-22T02:12:29;8.18;;;6.13;;
76310;SDS011;65120;59.304;18.294;2023-06-22T02:14:58;6.90;;;6.20;;
76310;SDS011;65120;59.304;18.294;2023-06-22T02:17:26;7.22;;;5.95;;
76310;SDS011;65120;59.304;18.294;2023-06-22T02:19:53;8.82;;;6.22;;
76310;SDS011;65120;59.304;18.294;2023-06-22T02:22:21;7.95;;;5.85;;
76310;SDS011;65120;59.304;18.294;2023-06-22T02:24:48;7.47;;;6.15;;
76310;SDS011;65120;59.304;18.294;2023-06-22T02:27:15;9.48;;;6.05;;
76310;SDS011;65120;59.304;18.294;2023-06-22T02:29:42;9.07;;;6.72;;
76310;SDS011;65120;59.304;18.294;2023-06-22T02:32:09;7.00;;;6.30;;
76310;SDS011;65120;59.304;18.294;2023-06-22T02:34:36;7.57;;;6.88;;
76310;SDS011;65120;59.304;18.294;2023-06-22T02:37:03;9.60;;;7.07;;
76310;SDS011;65120;59.304;18.294;2023-06-22T02:39:31;8.77;;;7.30;;
76310;SDS011;65120;59.304;18.294;2023-06-22T02:41:58;7.95;;;7.00;;
76310;SDS011;65120;59.304;18.294;2023-06-22T02:44:25;8.35;;;6.30;;
76310;SDS011;65120;59.304;18.294;2023-06-22T02:46:52;6.35;;;5.85;;
76310;SDS011;65120;59.304;18.294;2023-06-22T02:49:20;6.65;;;6.05;;
76310;SDS011;65120;59.304;18.294;2023-06-22T02:51:47;6.80;;;6.20;;
76310;SDS011;65120;59.304;18.294;2023-06-22T02:54:14;8.13;;;6.50;;
76310;SDS011;65120;59.304;18.294;2023-06-22T02:56:42;7.85;;;7.10;;
76310;SDS011;65120;59.304;18.294;2023-06-22T02:59:10;10.20;;;7.68;;
76310;SDS011;65120;59.304;18.294;2023-06-22T03:01:37;8.18;;;7.18;;
76310;SDS011;65120;59.304;18.294;2023-06-22T03:04:05;7.45;;;6.78;;
76310;SDS011;65120;59.304;18.294;2023-06-22T03:06:32;7.30;;;6.53;;
76310;SDS011;65120;59.304;18.294;2023-06-22T03:08:59;7.55;;;6.40;;
76310;SDS011;65120;59.304;18.294;2023-06-22T03:11:29;9.35;;;6.30;;
76310;SDS011;65120;59.304;18.294;2023-06-22T03:13:57;7.60;;;6.90;;
76310;SDS011;65120;59.304;18.294;2023-06-22T03:16:24;8.25;;;6.28;;
76310;SDS011;65120;59.304;18.294;2023-06-22T03:18:51;20.20;;;7.13;;
76310;SDS011;65120;59.304;18.294;2023-06-22T03:21:19;7.45;;;6.75;;
76310;SDS011;65120;59.304;18.294;2023-06-22T03:23:48;7.35;;;6.63;;
76310;SDS011;65120;59.304;18.294;2023-06-22T03:26:16;7.90;;;7.00;;
76310;SDS011;65120;59.304;18.294;2023-06-22T03:28:43;8.20;;;7.43;;
76310;SDS011;65120;59.304;18.294;2023-06-22T03:31:11;6.90;;;6.30;;
76310;SDS011;65120;59.304;18.294;2023-06-22T03:33:38;6.85;;;6.20;;
76310;SDS011;65120;59.304;18.294;2023-06-22T03:36:05;7.95;;;7.25;;
76310;SDS011;65120;59.304;18.294;2023-06-22T03:38:32;7.00;;;5.28;;
76310;SDS011;65120;59.304;18.294;2023-06-22T03:40:59;6.53;;;5.80;;
76310;SDS011;65120;59.304;18.294;2023-06-22T03:43:26;7.30;;;6.70;;
76310;SDS011;65120;59.304;18.294;2023-06-22T03:45:52;7.10;;;5.63;;
76310;SDS011;65120;59.304;18.294;2023-06-22T03:48:21;7.72;;;6.13;;
76310;SDS011;65120;59.304;18.294;2023-06-22T03:50:47;6.25;;;5.65;;
76310;SDS011;65120;59.304;18.294;2023-06-22T03:53:14;7.28;;;6.60;;
76310;SDS011;65120;59.304;18.294;2023-06-22T03:55:47;8.10;;;6.22;;
76310;SDS011;65120;59.304;18.294;2023-06-22T03:58:15;7.38;;;6.68;;
76310;SDS011;65120;59.304;18.294;2023-06-22T04:00:44;7.82;;;7.13;;
76310;SDS011;65120;59.304;18.294;2023-06-22T04:03:11;7.90;;;6.75;;
76310;SDS011;65120;59.304;18.294;2023-06-22T04:05:39;8.30;;;6.72;;
76310;SDS011;65120;59.304;18.294;2023-06-22T04:08:06;6.78;;;6.18;;
76310;SDS011;65120;59.304;18.294;2023-06-22T04:10:33;7.57;;;6.75;;
76310;SDS011;65120;59.304;18.294;2023-06-22T04:13:00;8.82;;;7.15;;
76310;SDS011;65120;59.304;18.294;2023-06-22T04:15:27;7.38;;;6.25;;
76310;SDS011;65120;59.304;18.294;2023-06-22T04:17:54;7.22;;;6.45;;
76310;SDS011;65120;59.304;18.294;2023-06-22T04:20:21;7.43;;;6.70;;
76310;SDS011;65120;59.304;18.294;2023-06-22T04:22:52;6.93;;;6.32;;
76310;SDS011;65120;59.304;18.294;2023-06-22T04:25:19;7.13;;;6.53;;
76310;SDS011;65120;59.304;18.294;2023-06-22T04:27:46;7.13;;;6.15;;
76310;SDS011;65120;59.304;18.294;2023-06-22T04:30:13;7.10;;;6.40;;
76310;SDS011;65120;59.304;18.294;2023-06-22T04:32:41;9.27;;;6.68;;
76310;SDS011;65120;59.304;18.294;2023-06-22T04:35:09;9.40;;;6.32;;
76310;SDS011;65120;59.304;18.294;2023-06-22T04:37:36;6.25;;;5.75;;
76310;SDS011;65120;59.304;18.294;2023-06-22T04:40:06;6.90;;;6.30;;
76310;SDS011;65120;59.304;18.294;2023-06-22T04:42:34;6.68;;;6.07;;
76310;SDS011;65120;59.304;18.294;2023-06-22T04:45:02;6.43;;;5.85;;
76310;SDS011;65120;59.304;18.294;2023-06-22T04:47:29;6.95;;;6.10;;
76310;SDS011;65120;59.304;18.294;2023-06-22T04:49:56;7.30;;;6.15;;
76310;SDS011;65120;59.304;18.294;2023-06-22T04:52:23;8.18;;;6.10;;
76310;SDS011;65120;59.304;18.294;2023-06-22T04:54:50;6.78;;;5.88;;
76310;SDS011;65120;59.304;18.294;2023-06-22T04:57:22;6.28;;;5.68;;
76310;SDS011;65120;59.304;18.294;2023-06-22T04:59:57;7.43;;;6.75;;
76310;SDS011;65120;59.304;18.294;2023-06-22T05:02:36;9.13;;;6.47;;
76310;SDS011;65120;59.304;18.294;2023-06-22T05:05:04;6.22;;;5.22;;
76310;SDS011;65120;59.304;18.294;2023-06-22T05:07:32;5.57;;;5.07;;
76310;SDS011;65120;59.304;18.294;2023-06-22T05:09:59;5.90;;;5.40;;
76310;SDS011;65120;59.304;18.294;2023-06-22T05:12:27;4.57;;;4.18;;
76310;SDS011;65120;59.304;18.294;2023-06-22T05:14:55;5.20;;;4.53;;
76310;SDS011;65120;59.304;18.294;2023-06-22T05:17:21;5.93;;;4.43;;
76310;SDS011;65120;59.304;18.294;2023-06-22T05:19:48;5.80;;;4.72;;
76310;SDS011;65120;59.304;18.294;2023-06-22T05:22:15;4.93;;;4.53;;
76310;SDS011;65120;59.304;18.294;2023-06-22T05:24:42;4.40;;;4.10;;
76310;SDS011;65120;59.304;18.294;2023-06-22T05:27:10;8.40;;;4.20;;
76310;SDS011;65120;59.304;18.294;2023-06-22T05:29:38;6.20;;;5.20;;
76310;SDS011;65120;59.304;18.294;2023-06-22T05:32:05;7.60;;;4.75;;
76310;SDS011;65120;59.304;18.294;2023-06-22T05:34:33;5.00;;;4.50;;
76310;SDS011;65120;59.304;18.294;2023-06-22T05:37:00;4.57;;;4.18;;
76310;SDS011;65120;59.304;18.294;2023-06-22T05:39:26;7.45;;;4.25;;
76310;SDS011;65120;59.304;18.294;2023-06-22T05:41:53;8.18;;;4.28;;
76310;SDS011;65120;59.304;18.294;2023-06-22T05:44:20;4.50;;;4.10;;
76310;SDS011;65120;59.304;18.294;2023-06-22T05:46:48;4.85;;;4.45;;
76310;SDS011;65120;59.304;18.294;2023-06-22T05:49:15;5.05;;;4.55;;
76310;SDS011;65120;59.304;18.294;2023-06-22T05:51:42;6.53;;;4.00;;
76310;SDS011;65120;59.304;18.294;2023-06-22T05:54:09;5.18;;;4.68;;
76310;SDS011;65120;59.304;18.294;2023-06-22T05:56:38;4.88;;;4.05;;
76310;SDS011;65120;59.304;18.294;2023-06-22T05:59:05;5.85;;;4.13;;
76310;SDS011;65120;59.304;18.294;2023-06-22T06:01:32;6.20;;;5.28;;
76310;SDS011;65120;59.304;18.294;2023-06-22T06:04:02;3.97;;;3.55;;
76310;SDS011;65120;59.304;18.294;2023-06-22T06:06:30;4.57;;;4.18;;
76310;SDS011;65120;59.304;18.294;2023-06-22T06:08:56;4.32;;;3.92;;
76310;SDS011;65120;59.304;18.294;2023-06-22T06:11:24;3.80;;;3.50;;
76310;SDS011;65120;59.304;18.294;2023-06-22T06:13:51;5.90;;;3.58;;
76310;SDS011;65120;59.304;18.294;2023-06-22T06:16:18;5.18;;;3.17;;
76310;SDS011;65120;59.304;18.294;2023-06-22T06:18:45;3.90;;;3.55;;
76310;SDS011;65120;59.304;18.294;2023-06-22T06:21:15;4.53;;;3.03;;
76310;SDS011;65120;59.304;18.294;2023-06-22T06:23:42;3.72;;;3.42;;
76310;SDS011;65120;59.304;18.294;2023-06-22T06:26:08;3.22;;;2.92;;
76310;SDS011;65120;59.304;18.294;2023-06-22T06:28:35;4.35;;;4.05;;
76310;SDS011;65120;59.304;18.294;2023-06-22T06:31:02;3.20;;;3.00;;
76310;SDS011;65120;59.304;18.294;2023-06-22T06:33:32;5.43;;;3.70;;
76310;SDS011;65120;59.304;18.294;2023-06-22T06:35:59;3.83;;;3.30;;
76310;SDS011;65120;59.304;18.294;2023-06-22T06:38:29;3.60;;;3.30;;
76310;SDS011;65120;59.304;18.294;2023-06-22T06:40:57;7.13;;;3.28;;
76310;SDS011;65120;59.304;18.294;2023-06-22T06:43:24;3.28;;;3.00;;
76310;SDS011;65120;59.304;18.294;2023-06-22T06:45:52;3.45;;;3.10;;
76310;SDS011;65120;59.304;18.294;2023-06-22T06:48:18;3.72;;;3.40;;
76310;SDS011;65120;59.304;18.294;2023-06-22T06:50:45;7.85;;;3.42;;
76310;SDS011;65120;59.304;18.294;2023-06-22T06:53:12;3.90;;;3.25;;
76310;SDS011;65120;59.304;18.294;2023-06-22T06:55:40;3.50;;;3.20;;
76310;SDS011;65120;59.304;18.294;2023-06-22T06:58:07;3.75;;;3.45;;
76310;SDS011;65120;59.304;18.294;2023-06-22T07:00:37;6.35;;;3.40;;
76310;SDS011;65120;59.304;18.294;2023-06-22T07:03:04;5.05;;;2.90;;
76310;SDS011;65120;59.304;18.294;2023-06-22T07:05:32;3.08;;;2.78;;
76310;SDS011;65120;59.304;18.294;2023-06-22T07:07:58;2.65;;;2.35;;
76310;SDS011;65120;59.304;18.294;2023-06-22T07:10:25;4.90;;;2.63;;
76310;SDS011;65120;59.304;18.294;2023-06-22T07:12:54;4.10;;;2.58;;
76310;SDS011;65120;59.304;18.294;2023-06-22T07:15:22;3.85;;;2.08;;
76310;SDS011;65120;59.304;18.294;2023-06-22T07:17:49;5.55;;;2.17;;
76310;SDS011;65120;59.304;18.294;2023-06-22T07:20:15;6.53;;;2.47;;
76310;SDS011;65120;59.304;18.294;2023-06-22T07:22:44;6.13;;;2.42;;
76310;SDS011;65120;59.304;18.294;2023-06-22T07:25:11;10.30;;;3.78;;
76310;SDS011;65120;59.304;18.294;2023-06-22T07:27:39;5.00;;;2.05;;
76310;SDS011;65120;59.304;18.294;2023-06-22T07:30:14;6.25;;;2.58;;
76310;SDS011;65120;59.304;18.294;2023-06-22T07:32:41;3.10;;;2.30;;
76310;SDS011;65120;59.304;18.294;2023-06-22T07:35:08;3.67;;;2.20;;
76310;SDS011;65120;59.304;18.294;2023-06-22T07:37:35;2.58;;;1.98;;
76310;SDS011;65120;59.304;18.294;2023-06-22T07:40:02;3.65;;;1.88;;
76310;SDS011;65120;59.304;18.294;2023-06-22T07:42:31;3.50;;;1.80;;
76310;SDS011;65120;59.304;18.294;2023-06-22T07:44:59;4.30;;;1.98;;
76310;SDS011;65120;59.304;18.294;2023-06-22T07:47:28;2.78;;;2.00;;
76310;SDS011;65120;59.304;18.294;2023-06-22T07:49:55;5.68;;;2.05;;
76310;SDS011;65120;59.304;18.294;2023-06-22T07:52:23;3.85;;;2.30;;
76310;SDS011;65120;59.304;18.294;2023-06-22T07:54:51;4.68;;;2.22;;
76310;SDS011;65120;59.304;18.294;2023-06-22T07:57:17;2.15;;;1.83;;
76310;SDS011;65120;59.304;18.294;2023-06-22T07:59:44;2.22;;;2.10;;
76310;SDS011;65120;59.304;18.294;2023-06-22T08:02:11;3.10;;;2.35;;
76310;SDS011;65120;59.304;18.294;2023-06-22T08:04:40;3.47;;;1.42;;
76310;SDS011;65120;59.304;18.294;2023-06-22T08:07:07;4.15;;;1.75;;
76310;SDS011;65120;59.304;18.294;2023-06-22T08:09:34;6.22;;;1.90;;
76310;SDS011;65120;59.304;18.294;2023-06-22T08:12:02;4.78;;;1.70;;
76310;SDS011;65120;59.304;18.294;2023-06-22T08:14:29;2.83;;;1.90;;
76310;SDS011;65120;59.304;18.294;2023-06-22T08:16:56;3.63;;;1.83;;
76310;SDS011;65120;59.304;18.294;2023-06-22T08:19:23;3.08;;;1.30;;
76310;SDS011;65120;59.304;18.294;2023-06-22T08:21:51;2.13;;;1.90;;
76310;SDS011;65120;59.304;18.294;2023-06-22T08:24:18;7.28;;;1.95;;
76310;SDS011;65120;59.304;18.294;2023-06-22T08:26:45;2.65;;;1.60;;
76310;SDS011;65120;59.304;18.294;2023-06-22T08:29:11;2.05;;;1.70;;
76310;SDS011;65120;59.304;18.294;2023-06-22T08:31:39;2.33;;;1.77;;
76310;SDS011;65120;59.304;18.294;2023-06-22T08:34:06;3.03;;;1.42;;
76310;SDS011;65120;59.304;18.294;2023-06-22T08:36:33;4.90;;;1.42;;
76310;SDS011;65120;59.304;18.294;2023-06-22T08:39:04;4.55;;;1.73;;
76310;SDS011;65120;59.304;18.294;2023-06-22T08:41:30;4.65;;;2.15;;
76310;SDS011;65120;59.304;18.294;2023-06-22T08:43:57;3.70;;;1.77;;
76310;SDS011;65120;59.304;18.294;2023-06-22T08:46:24;2.88;;;1.35;;
76310;SDS011;65120;59.304;18.294;2023-06-22T08:48:55;1.67;;;1.38;;
76310;SDS011;65120;59.304;18.294;2023-06-22T08:51:23;2.75;;;1.38;;
76310;SDS011;65120;59.304;18.294;2023-06-22T08:53:50;3.30;;;1.42;;
76310;SDS011;65120;59.304;18.294;2023-06-22T08:56:18;3.67;;;1.88;;
76310;SDS011;65120;59.304;18.294;2023-06-22T08:58:45;2.03;;;1.70;;
76310;SDS011;65120;59.304;18.294;2023-06-22T09:01:12;8.02;;;1.98;;
76310;SDS011;65120;59.304;18.294;2023-06-22T09:03:40;2.70;;;1.48;;
76310;SDS011;65120;59.304;18.294;2023-06-22T09:06:07;7.03;;;1.60;;
76310;SDS011;65120;59.304;18.294;2023-06-22T09:08:35;3.38;;;1.58;;
76310;SDS011;65120;59.304;18.294;2023-06-22T09:11:02;2.85;;;1.60;;
76310;SDS011;65120;59.304;18.294;2023-06-22T09:13:31;3.88;;;1.35;;
76310;SDS011;65120;59.304;18.294;2023-06-22T09:15:59;4.80;;;2.40;;
76310;SDS011;65120;59.304;18.294;2023-06-22T09:18:26;3.53;;;1.88;;
76310;SDS011;65120;59.304;18.294;2023-06-22T09:20:53;2.70;;;1.42;;
76310;SDS011;65120;59.304;18.294;2023-06-22T09:23:20;2.55;;;1.98;;
76310;SDS011;65120;59.304;18.294;2023-06-22T09:25:47;1.67;;;1.55;;
76310;SDS011;65120;59.304;18.294;2023-06-22T09:28:15;3.47;;;1.60;;
76310;SDS011;65120;59.304;18.294;2023-06-22T09:30:44;2.22;;;1.25;;
76310;SDS011;65120;59.304;18.294;2023-06-22T09:33:11;2.03;;;1.63;;
76310;SDS011;65120;59.304;18.294;2023-06-22T09:35:38;3.83;;;1.38;;
76310;SDS011;65120;59.304;18.294;2023-06-22T09:38:04;2.72;;;0.98;;
76310;SDS011;65120;59.304;18.294;2023-06-22T09:40:31;2.05;;;1.17;;
76310;SDS011;65120;59.304;18.294;2023-06-22T09:43:05;4.28;;;1.23;;
76310;SDS011;65120;59.304;18.294;2023-06-22T09:45:31;3.42;;;1.13;;
76310;SDS011;65120;59.304;18.294;2023-06-22T09:48:00;3.25;;;1.17;;
76310;SDS011;65120;59.304;18.294;2023-06-22T09:50:27;2.22;;;1.48;;
76310;SDS011;65120;59.304;18.294;2023-06-22T09:52:54;6.97;;;1.65;;
76310;SDS011;65120;59.304;18.294;2023-06-22T09:55:20;3.45;;;1.73;;
76310;SDS011;65120;59.304;18.294;2023-06-22T09:57:47;1.95;;;1.05;;
76310;SDS011;65120;59.304;18.294;2023-06-22T10:00:15;11.52;;;2.15;;
76310;SDS011;65120;59.304;18.294;2023-06-22T10:02:44;2.00;;;1.38;;
76310;SDS011;65120;59.304;18.294;2023-06-22T10:05:12;2.35;;;0.93;;
76310;SDS011;65120;59.304;18.294;2023-06-22T10:07:39;3.10;;;1.00;;
76310;SDS011;65120;59.304;18.294;2023-06-22T10:10:08;3.28;;;1.05;;
76310;SDS011;65120;59.304;18.294;2023-06-22T10:12:35;1.85;;;1.20;;
76310;SDS011;65120;59.304;18.294;2023-06-22T10:15:03;1.30;;;1.20;;
76310;SDS011;65120;59.304;18.294;2023-06-22T10:17:30;2.47;;;1.17;;
76310;SDS011;65120;59.304;18.294;2023-06-22T10:19:57;3.08;;;1.25;;
76310;SDS011;65120;59.304;18.294;2023-06-22T10:22:25;2.65;;;0.85;;
76310;SDS011;65120;59.304;18.294;2023-06-22T10:24:52;2.00;;;0.93;;
76310;SDS011;65120;59.304;18.294;2023-06-22T10:27:19;2.80;;;1.00;;
76310;SDS011;65120;59.304;18.294;2023-06-22T10:29:46;3.25;;;1.08;;
76310;SDS011;65120;59.304;18.294;2023-06-22T10:32:13;5.47;;;0.73;;
76310;SDS011;65120;59.304;18.294;2023-06-22T10:34:40;5.35;;;1.70;;
76310;SDS011;65120;59.304;18.294;2023-06-22T10:37:07;2.30;;;0.85;;
76310;SDS011;65120;59.304;18.294;2023-06-22T10:39:35;1.13;;;0.60;;
76310;SDS011;65120;59.304;18.294;2023-06-22T10:42:02;2.58;;;0.75;;
76310;SDS011;65120;59.304;18.294;2023-06-22T10:44:29;3.65;;;0.70;;
76310;SDS011;65120;59.304;18.294;2023-06-22T10:46:56;2.53;;;0.70;;
76310;SDS011;65120;59.304;18.294;2023-06-22T10:49:23;5.05;;;0.80;;
76310;SDS011;65120;59.304;18.294;2023-06-22T10:51:50;3.55;;;0.77;;
76310;SDS011;65120;59.304;18.294;2023-06-22T10:54:16;1.73;;;0.70;;
76310;SDS011;65120;59.304;18.294;2023-06-22T10:56:45;4.07;;;0.68;;
76310;SDS011;65120;59.304;18.294;2023-06-22T10:59:12;1.15;;;0.75;;
76310;SDS011;65120;59.304;18.294;2023-06-22T11:01:39;1.75;;;0.63;;
76310;SDS011;65120;59.304;18.294;2023-06-22T11:04:06;4.32;;;1.48;;
76310;SDS011;65120;59.304;18.294;2023-06-22T11:06:33;2.47;;;0.90;;
76310;SDS011;65120;59.304;18.294;2023-06-22T11:09:00;2.65;;;0.50;;
76310;SDS011;65120;59.304;18.294;2023-06-22T11:11:29;4.80;;;0.70;;
76310;SDS011;65120;59.304;18.294;2023-06-22T11:13:57;1.75;;;0.60;;
76310;SDS011;65120;59.304;18.294;2023-06-22T11:16:24;5.32;;;0.88;;
76310;SDS011;65120;59.304;18.294;2023-06-22T11:18:51;2.10;;;0.88;;
76310;SDS011;65120;59.304;18.294;2023-06-22T11:21:17;4.70;;;0.70;;
76310;SDS011;65120;59.304;18.294;2023-06-22T11:23:44;2.85;;;0.63;;
76310;SDS011;65120;59.304;18.294;2023-06-22T11:26:12;1.30;;;0.70;;
76310;SDS011;65120;59.304;18.294;2023-06-22T11:28:38;3.00;;;0.88;;
76310;SDS011;65120;59.304;18.294;2023-06-22T11:31:07;2.85;;;0.63;;
76310;SDS011;65120;59.304;18.294;2023-06-22T11:33:34;5.80;;;0.60;;
76310;SDS011;65120;59.304;18.294;2023-06-22T11:36:01;1.13;;;0.70;;
76310;SDS011;65120;59.304;18.294;2023-06-22T11:38:28;2.28;;;0.50;;
76310;SDS011;65120;59.304;18.294;2023-06-22T11:40:57;4.57;;;0.50;;
76310;SDS011;65120;59.304;18.294;2023-06-22T11:43:27;2.25;;;0.50;;
76310;SDS011;65120;59.304;18.294;2023-06-22T11:45:54;2.65;;;0.80;;
76310;SDS011;65120;59.304;18.294;2023-06-22T11:48:24;2.28;;;0.60;;
76310;SDS011;65120;59.304;18.294;2023-06-22T11:50:51;5.88;;;0.60;;
76310;SDS011;65120;59.304;18.294;2023-06-22T11:53:20;3.53;;;0.50;;
76310;SDS011;65120;59.304;18.294;2023-06-22T11:55:47;6.03;;;1.10;;
76310;SDS011;65120;59.304;18.294;2023-06-22T11:58:14;3.75;;;0.50;;
76310;SDS011;65120;59.304;18.294;2023-06-22T12:00:41;1.63;;;0.60;;
76310;SDS011;65120;59.304;18.294;2023-06-22T12:03:08;2.15;;;0.60;;
76310;SDS011;65120;59.304;18.294;2023-06-22T12:05:38;0.93;;;0.47;;
76310;SDS011;65120;59.304;18.294;2023-06-22T12:08:05;2.60;;;0.60;;
76310;SDS011;65120;59.304;18.294;2023-06-22T12:10:32;2.25;;;0.43;;
76310;SDS011;65120;59.304;18.294;2023-06-22T12:12:59;2.15;;;0.73;;
76310;SDS011;65120;59.304;18.294;2023-06-22T12:15:26;4.22;;;0.52;;
76310;SDS011;65120;59.304;18.294;2023-06-22T12:17:53;2.65;;;0.50;;
76310;SDS011;65120;59.304;18.294;2023-06-22T12:20:20;1.08;;;0.50;;
76310;SDS011;65120;59.304;18.294;2023-06-22T12:22:48;3.83;;;0.68;;
76310;SDS011;65120;59.304;18.294;2023-06-22T12:25:16;0.88;;;0.50;;
76310;SDS011;65120;59.304;18.294;2023-06-22T12:27:43;6.43;;;0.65;;
76310;SDS011;65120;59.304;18.294;2023-06-22T12:30:10;4.03;;;0.60;;
76310;SDS011;65120;59.304;18.294;2023-06-22T12:32:37;1.15;;;0.50;;
76310;SDS011;65120;59.304;18.294;2023-06-22T12:35:05;1.42;;;0.50;;
76310;SDS011;65120;59.304;18.294;2023-06-22T12:37:38;0.93;;;0.85;;
76310;SDS011;65120;59.304;18.294;2023-06-22T12:40:07;3.35;;;0.60;;
76310;SDS011;65120;59.304;18.294;2023-06-22T12:42:35;0.55;;;0.40;;
76310;SDS011;65120;59.304;18.294;2023-06-22T12:45:02;1.83;;;0.70;;
76310;SDS011;65120;59.304;18.294;2023-06-22T12:47:29;1.10;;;0.50;;
76310;SDS011;65120;59.304;18.294;2023-06-22T12:49:56;2.30;;;0.65;;
76310;SDS011;65120;59.304;18.294;2023-06-22T12:52:23;2.97;;;0.47;;
76310;SDS011;65120;59.304;18.294;2023-06-22T12:54:50;3.15;;;0.60;;
76310;SDS011;65120;59.304;18.294;2023-06-22T12:57:18;4.38;;;0.90;;
76310;SDS011;65120;59.304;18.294;2023-06-22T12:59:45;1.15;;;0.47;;
76310;SDS011;65120;59.304;18.294;2023-06-22T13:02:12;1.98;;;0.70;;
76310;SDS011;65120;59.304;18.294;2023-06-22T13:04:39;1.88;;;0.60;;
76310;SDS011;65120;59.304;18.294;2023-06-22T13:07:08;1.55;;;0.80;;
76310;SDS011;65120;59.304;18.294;2023-06-22T13:09:35;0.85;;;0.47;;
76310;SDS011;65120;59.304;18.294;2023-06-22T13:12:03;2.15;;;0.70;;
76310;SDS011;65120;59.304;18.294;2023-06-22T13:14:32;0.70;;;0.50;;
76310;SDS011;65120;59.304;18.294;2023-06-22T13:16:58;2.38;;;0.65;;
76310;SDS011;65120;59.304;18.294;2023-06-22T13:19:25;1.67;;;0.60;;
76310;SDS011;65120;59.304;18.294;2023-06-22T13:21:57;2.20;;;0.50;;
76310;SDS011;65120;59.304;18.294;2023-06-22T13:24:24;5.30;;;0.60;;
76310;SDS011;65120;59.304;18.294;2023-06-22T13:26:51;2.15;;;0.80;;
76310;SDS011;65120;59.304;18.294;2023-06-22T13:29:17;1.23;;;0.55;;
76310;SDS011;65120;59.304;18.294;2023-06-22T13:31:46;0.90;;;0.60;;
76310;SDS011;65120;59.304;18.294;2023-06-22T13:34:13;0.98;;;0.50;;
76310;SDS011;65120;59.304;18.294;2023-06-22T13:36:39;2.70;;;0.73;;
76310;SDS011;65120;59.304;18.294;2023-06-22T13:39:06;1.48;;;0.68;;
76310;SDS011;65120;59.304;18.294;2023-06-22T13:41:33;3.40;;;0.98;;
76310;SDS011;65120;59.304;18.294;2023-06-22T13:44:00;6.05;;;0.77;;
76310;SDS011;65120;59.304;18.294;2023-06-22T13:46:27;1.92;;;0.93;;
76310;SDS011;65120;59.304;18.294;2023-06-22T13:48:56;1.73;;;0.95;;
76310;SDS011;65120;59.304;18.294;2023-06-22T13:51:23;1.02;;;0.70;;
76310;SDS011;65120;59.304;18.294;2023-06-22T13:53:50;3.00;;;0.77;;
76310;SDS011;65120;59.304;18.294;2023-06-22T13:56:17;1.83;;;0.65;;
76310;SDS011;65120;59.304;18.294;2023-06-22T13:58:44;1.73;;;0.75;;
76310;SDS011;65120;59.304;18.294;2023-06-22T14:01:10;1.33;;;0.50;;
76310;SDS011;65120;59.304;18.294;2023-06-22T14:03:37;1.30;;;0.60;;
76310;SDS011;65120;59.304;18.294;2023-06-22T14:06:06;2.28;;;0.50;;
76310;SDS011;65120;59.304;18.294;2023-06-22T14:08:35;4.32;;;0.60;;
76310;SDS011;65120;59.304;18.294;2023-06-22T14:11:02;2.95;;;0.70;;
76310;SDS011;65120;59.304;18.294;2023-06-22T14:13:29;3.67;;;0.57;;
76310;SDS011;65120;59.304;18.294;2023-06-22T14:15:56;2.75;;;0.70;;
76310;SDS011;65120;59.304;18.294;2023-06-22T14:18:23;6.43;;;0.77;;
76310;SDS011;65120;59.304;18.294;2023-06-22T14:20:50;7.53;;;0.82;;
76310;SDS011;65120;59.304;18.294;2023-06-22T14:23:18;7.53;;;0.70;;
76310;SDS011;65120;59.304;18.294;2023-06-22T14:25:45;6.35;;;0.85;;
76310;SDS011;65120;59.304;18.294;2023-06-22T14:28:12;2.15;;;0.50;;
76310;SDS011;65120;59.304;18.294;2023-06-22T14:30:39;1.50;;;0.60;;
76310;SDS011;65120;59.304;18.294;2023-06-22T14:33:06;1.90;;;0.60;;
76310;SDS011;65120;59.304;18.294;2023-06-22T14:35:33;0.70;;;0.68;;